createdAt,value
2023-04-27T00:02:14.863Z,100551.69
2023-04-27T00:04:44.794Z,100556.78
2023-04-27T00:07:12.933Z,100558.53
2023-04-27T00:09:40.773Z,100553.22
2023-04-27T00:12:08.911Z,100554.88
2023-04-27T00:14:36.824Z,100566.84
2023-04-27T00:17:04.733Z,100562.41
2023-04-27T00:19:32.682Z,100563.28
2023-04-27T00:22:01.895Z,100561.38
2023-04-27T00:24:29.758Z,100572.56
2023-04-27T00:26:57.867Z,100560.47
2023-04-27T00:29:25.816Z,100570.75
2023-04-27T00:31:53.711Z,100567.22
2023-04-27T00:34:21.802Z,100575.84
2023-04-27T00:36:49.628Z,100571.44
2023-04-27T00:39:18.951Z,100572.34
2023-04-27T00:41:46.926Z,100573.25
2023-04-27T00:44:14.808Z,100575.69
2023-04-27T00:46:42.695Z,100584.31
2023-04-27T00:49:10.755Z,100568.78
2023-04-27T00:51:41.814Z,100574.84
2023-04-27T00:54:10.398Z,100567.22
2023-04-27T00:56:39.743Z,100575.84
2023-04-27T00:59:07.589Z,100579.50
2023-04-27T01:01:35.728Z,100579.50
2023-04-27T01:04:03.873Z,100580.41
2023-04-27T01:06:31.998Z,100577.72
2023-04-27T01:08:59.958Z,100581.31
2023-04-27T01:11:27.924Z,100577.88
2023-04-27T01:13:57.694Z,100574.47
2023-04-27T01:16:26.511Z,100571.19
2023-04-27T01:18:54.403Z,100588.53
2023-04-27T01:21:22.380Z,100585.88
2023-04-27T01:23:51.716Z,100582.47
2023-04-27T01:26:19.641Z,100587.72
2023-04-27T01:28:47.680Z,100581.53
2023-04-27T01:31:16.182Z,100590.22
2023-04-27T01:33:44.111Z,100595.41
2023-04-27T01:36:12.103Z,100592.81
2023-04-27T01:38:40.338Z,100593.63
2023-04-27T01:41:09.775Z,100588.78
2023-04-27T01:43:38.138Z,100583.50
2023-04-27T01:46:09.756Z,100585.34
2023-04-27T01:48:37.928Z,100588.84
2023-04-27T01:51:05.937Z,100594.03
2023-04-27T01:53:34.233Z,100588.00
2023-04-27T01:56:03.535Z,100590.72
2023-04-27T01:58:32.755Z,100600.16
2023-04-27T02:01:00.700Z,100596.75
2023-04-27T02:03:28.793Z,100596.75
2023-04-27T02:05:57.016Z,100592.31
2023-04-27T02:08:25.020Z,100598.34
2023-04-27T02:10:52.982Z,100601.84
2023-04-27T02:13:21.257Z,100595.00
2023-04-27T02:15:50.762Z,100595.91
2023-04-27T02:18:18.648Z,100602.06
2023-04-27T02:20:46.574Z,100597.84
2023-04-27T02:23:14.539Z,100590.88
2023-04-27T02:25:46.666Z,100596.19
2023-04-27T02:28:14.693Z,100605.91
2023-04-27T02:30:43.015Z,100601.78
2023-04-27T02:33:12.564Z,100604.31
2023-04-27T02:35:40.440Z,100609.63
2023-04-27T02:38:08.308Z,100612.22
2023-04-27T02:40:36.159Z,100618.31
2023-04-27T02:43:04.070Z,100617.38
2023-04-27T02:45:32.032Z,100611.38
2023-04-27T02:48:00.030Z,100609.56
2023-04-27T02:50:29.392Z,100616.41
2023-04-27T02:52:57.437Z,100624.03
2023-04-27T02:55:27.546Z,100626.59
2023-04-27T02:57:55.314Z,100618.09
2023-04-27T03:00:23.392Z,100628.38
2023-04-27T03:02:51.462Z,100624.94
2023-04-27T03:05:19.778Z,100618.91
2023-04-27T03:07:49.102Z,100626.69
2023-04-27T03:10:17.104Z,100629.19
2023-04-27T03:12:44.900Z,100631.78
2023-04-27T03:15:12.837Z,100626.47
2023-04-27T03:17:40.769Z,100625.72
2023-04-27T03:20:10.280Z,100622.22
2023-04-27T03:22:38.384Z,100626.53
2023-04-27T03:25:10.798Z,100630.19
2023-04-27T03:27:38.720Z,100630.41
2023-04-27T03:30:08.523Z,100628.78
2023-04-27T03:32:36.454Z,100633.31
2023-04-27T03:35:04.564Z,100635.00
2023-04-27T03:37:32.889Z,100639.56
2023-04-27T03:40:00.886Z,100638.72
2023-04-27T03:42:30.216Z,100638.56
2023-04-27T03:44:58.208Z,100647.94
2023-04-27T03:47:26.523Z,100646.13
2023-04-27T03:49:54.662Z,100650.78
2023-04-27T03:52:22.565Z,100655.97
2023-04-27T03:54:50.413Z,100657.66
2023-04-27T03:57:18.225Z,100656.94
2023-04-27T03:59:47.568Z,100657.59
2023-04-27T04:02:15.586Z,100660.13
2023-04-27T04:04:43.758Z,100658.50
2023-04-27T04:07:12.093Z,100657.66
2023-04-27T04:09:43.483Z,100662.69
2023-04-27T04:12:11.419Z,100658.56
2023-04-27T04:14:39.345Z,100662.78
2023-04-27T04:17:10.912Z,100663.91
2023-04-27T04:19:38.916Z,100664.06
2023-04-27T04:22:06.724Z,100659.91
2023-04-27T04:24:34.636Z,100668.59
2023-04-27T04:27:02.958Z,100673.38
2023-04-27T04:29:30.916Z,100668.34
2023-04-27T04:31:59.106Z,100671.59
2023-04-27T04:34:29.253Z,100677.41
2023-04-27T04:36:57.668Z,100673.38
2023-04-27T04:39:27.138Z,100681.09
2023-04-27T04:41:55.226Z,100671.63
2023-04-27T04:44:23.115Z,100677.03
2023-04-27T04:46:51.277Z,100679.84
2023-04-27T04:49:19.202Z,100681.22
2023-04-27T04:51:48.521Z,100679.78
2023-04-27T04:54:16.396Z,100686.91
2023-04-27T04:56:44.248Z,100693.84
2023-04-27T04:59:12.449Z,100691.94
2023-04-27T05:01:40.703Z,100697.44
2023-04-27T05:04:08.808Z,100699.72
2023-04-27T05:06:36.808Z,100695.31
2023-04-27T05:09:06.489Z,100711.53
2023-04-27T05:11:34.410Z,100704.13
2023-04-27T05:14:02.276Z,100704.13
2023-04-27T05:16:30.275Z,100695.47
2023-04-27T05:18:58.243Z,100702.66
2023-04-27T05:21:26.120Z,100700.69
2023-04-27T05:23:53.973Z,100709.97
2023-04-27T05:26:23.256Z,100693.56
2023-04-27T05:28:51.224Z,100708.47
2023-04-27T05:31:19.107Z,100705.56
2023-04-27T05:33:47.144Z,100707.41
2023-04-27T05:36:15.048Z,100706.78
2023-04-27T05:38:43.462Z,100708.19
2023-04-27T05:41:11.453Z,100709.63
2023-04-27T05:43:40.752Z,100711.78
2023-04-27T05:46:08.946Z,100703.94
2023-04-27T05:48:36.963Z,100706.81
2023-04-27T05:51:05.764Z,100714.34
2023-04-27T05:53:34.174Z,100713.16
2023-04-27T05:56:04.382Z,100712.31
2023-04-27T05:58:33.157Z,100711.38
2023-04-27T06:01:03.708Z,100715.22
2023-04-27T06:03:32.216Z,100709.56
2023-04-27T06:06:01.573Z,100717.91
2023-04-27T06:08:29.643Z,100708.22
2023-04-27T06:10:57.936Z,100711.91
2023-04-27T06:13:25.891Z,100712.56
2023-04-27T06:15:53.845Z,100715.59
2023-04-27T06:18:23.151Z,100711.66
2023-04-27T06:20:51.079Z,100713.44
2023-04-27T06:23:18.994Z,100711.13
2023-04-27T06:25:46.893Z,100706.31
2023-04-27T06:28:14.730Z,100713.88
2023-04-27T06:30:42.569Z,100712.03
2023-04-27T06:33:10.632Z,100714.81
2023-04-27T06:35:39.969Z,100714.84
2023-04-27T06:38:08.151Z,100720.34
2023-04-27T06:40:37.071Z,100722.22
2023-04-27T06:43:04.932Z,100723.19
2023-04-27T06:45:32.883Z,100720.78
2023-04-27T06:48:01.057Z,100724.59
2023-04-27T06:50:29.493Z,100721.50
2023-04-27T06:52:58.957Z,100712.78
2023-04-27T06:55:26.806Z,100722.66
2023-04-27T06:57:54.707Z,100718.88
2023-04-27T07:00:22.933Z,100715.16
2023-04-27T07:02:51.449Z,100713.78
2023-04-27T07:05:19.913Z,100724.47
2023-04-27T07:07:47.810Z,100732.91
2023-04-27T07:10:17.148Z,100716.09
2023-04-27T07:12:45.261Z,100721.22
2023-04-27T07:15:13.237Z,100727.09
2023-04-27T07:17:41.628Z,100737.97
2023-04-27T07:20:10.748Z,100739.63
2023-04-27T07:22:38.617Z,100733.47
2023-04-27T07:25:07.619Z,100734.69
2023-04-27T07:27:36.846Z,100736.56
2023-04-27T07:30:05.640Z,100735.94
2023-04-27T07:32:33.584Z,100730.59
2023-04-27T07:35:01.835Z,100731.88
2023-04-27T07:37:30.316Z,100735.47
2023-04-27T07:39:59.582Z,100736.41
2023-04-27T07:42:27.557Z,100737.91
2023-04-27T07:44:57.602Z,100735.94
2023-04-27T07:47:25.480Z,100738.72
2023-04-27T07:49:53.397Z,100736.13
2023-04-27T07:52:21.453Z,100736.59
2023-04-27T07:54:49.393Z,100741.59
2023-04-27T07:57:17.287Z,100739.66
2023-04-27T07:59:45.870Z,100751.03
2023-04-27T08:04:47.033Z,100742.19
2023-04-27T08:07:16.155Z,100748.13
2023-04-27T08:09:44.231Z,100749.19
2023-04-27T08:12:12.197Z,100755.56
2023-04-27T08:14:40.137Z,100757.69
2023-04-27T08:17:09.573Z,100755.53
2023-04-27T08:19:38.908Z,100750.88
2023-04-27T08:22:06.966Z,100752.75
2023-04-27T08:24:35.316Z,100761.59
2023-04-27T08:27:03.817Z,100773.41
2023-04-27T08:29:31.824Z,100766.84
2023-04-27T08:32:01.287Z,100768.19
2023-04-27T08:34:29.470Z,100773.31
2023-04-27T08:36:58.990Z,100782.66
2023-04-27T08:39:26.834Z,100774.91
2023-04-27T08:41:55.140Z,100778.00
2023-04-27T08:44:23.146Z,100774.00
2023-04-27T08:46:52.204Z,100775.28
2023-04-27T08:49:20.920Z,100779.00
2023-04-27T08:51:49.179Z,100782.56
2023-04-27T08:54:18.785Z,100767.88
2023-04-27T08:56:46.610Z,100780.28
2023-04-27T08:59:16.298Z,100778.66
2023-04-27T09:01:49.032Z,100777.56
2023-04-27T09:04:17.882Z,100785.66
2023-04-27T09:06:46.219Z,100773.88
2023-04-27T09:09:27.313Z,100776.66
2023-04-27T09:11:55.198Z,100775.22
2023-04-27T09:14:25.747Z,100775.44
2023-04-27T09:16:59.568Z,100776.66
2023-04-27T09:19:28.937Z,100780.56
2023-04-27T09:22:08.240Z,100779.34
2023-04-27T09:24:38.532Z,100789.03
2023-04-27T09:27:08.665Z,100784.72
2023-04-27T09:29:38.066Z,100782.66
2023-04-27T09:32:17.572Z,100779.50
2023-04-27T09:34:45.925Z,100787.88
2023-04-27T09:37:14.317Z,100791.06
2023-04-27T09:39:44.025Z,100798.75
2023-04-27T09:42:13.511Z,100800.84
2023-04-27T09:44:41.472Z,100798.06
2023-04-27T09:47:10.436Z,100800.78
2023-04-27T09:49:38.975Z,100793.09
2023-04-27T09:52:06.907Z,100794.56
2023-04-27T09:54:36.478Z,100785.22
2023-04-27T09:57:17.429Z,100779.66
2023-04-27T10:00:11.125Z,100782.16
2023-04-27T10:02:53.211Z,100786.78
2023-04-27T10:05:38.166Z,100777.94
2023-04-27T10:08:07.307Z,100773.88
2023-04-27T10:10:44.610Z,100772.59
2023-04-27T10:13:22.963Z,100775.66
2023-04-27T10:15:51.268Z,100779.09
2023-04-27T10:18:30.746Z,100784.09
2023-04-27T10:21:10.436Z,100781.28
2023-04-27T10:23:48.406Z,100783.34
2023-04-27T10:26:23.487Z,100782.66
2023-04-27T10:29:00.416Z,100788.06
2023-04-27T10:31:29.508Z,100782.13
2023-04-27T10:34:08.546Z,100785.34
2023-04-27T10:36:38.156Z,100784.09
2023-04-27T10:39:17.093Z,100798.66
2023-04-27T10:41:52.154Z,100796.16
2023-04-27T10:44:28.768Z,100795.38
2023-04-27T10:46:58.060Z,100798.63
2023-04-27T10:49:25.948Z,100802.63
2023-04-27T10:51:54.108Z,100792.09
2023-04-27T10:54:21.960Z,100786.81
2023-04-27T10:56:49.881Z,100787.03
2023-04-27T10:59:17.890Z,100785.78
2023-04-27T11:01:50.803Z,100783.25
2023-04-27T11:04:19.504Z,100787.16
2023-04-27T11:06:47.862Z,100782.34
2023-04-27T11:09:26.766Z,100796.38
2023-04-27T11:11:54.821Z,100793.41
2023-04-27T11:14:22.772Z,100798.97
2023-04-27T11:16:52.191Z,100806.34
2023-04-27T11:19:20.110Z,100805.47
2023-04-27T11:21:48.006Z,100809.63
2023-04-27T11:24:16.019Z,100814.78
2023-04-27T11:26:44.291Z,100801.66
2023-04-27T11:29:14.121Z,100814.91
2023-04-27T11:31:43.797Z,100821.03
2023-04-27T11:34:17.462Z,100813.34
2023-04-27T11:36:45.804Z,100817.19
2023-04-27T11:39:23.703Z,100818.41
2023-04-27T11:41:52.132Z,100828.63
2023-04-27T11:44:19.985Z,100832.75
2023-04-27T11:46:48.370Z,100832.13
2023-04-27T11:49:17.633Z,100831.13
2023-04-27T11:51:48.813Z,100836.13
2023-04-27T11:54:16.858Z,100837.53
2023-04-27T11:56:45.200Z,100846.66
2023-04-27T11:59:21.135Z,100842.78
2023-04-27T12:01:49.257Z,100845.19
2023-04-27T12:04:18.981Z,100840.88
2023-04-27T12:06:47.227Z,100844.34
2023-04-27T12:09:15.187Z,100847.50
2023-04-27T12:11:43.125Z,100852.13
2023-04-27T12:14:11.674Z,100862.47
2023-04-27T12:16:39.737Z,100869.44
2023-04-27T12:19:08.185Z,100876.16
2023-04-27T12:21:37.598Z,100879.88
2023-04-27T12:24:06.007Z,100885.66
2023-04-27T12:26:33.977Z,100888.06
2023-04-27T12:29:04.366Z,100883.28
2023-04-27T12:31:32.320Z,100898.19
2023-04-27T12:34:00.343Z,100907.13
2023-04-27T12:36:28.692Z,100910.66
2023-04-27T12:39:01.669Z,100911.16
2023-04-27T12:41:29.742Z,100909.16
2023-04-27T12:43:57.750Z,100906.06
2023-04-27T12:46:25.775Z,100912.84
2023-04-27T12:48:53.750Z,100906.81
2023-04-27T12:51:21.798Z,100903.66
2023-04-27T12:53:49.691Z,100913.06
2023-04-27T12:56:19.306Z,100929.66
2023-04-27T12:58:47.237Z,100927.75
2023-04-27T13:01:15.682Z,100937.03
2023-04-27T13:03:43.923Z,100932.84
2023-04-27T13:06:12.375Z,100944.50
2023-04-27T13:08:41.058Z,100936.72
2023-04-27T13:11:09.013Z,100947.78
2023-04-27T13:13:38.551Z,100930.69
2023-04-27T13:16:06.709Z,100937.19
2023-04-27T13:18:35.286Z,100936.91
2023-04-27T13:21:05.214Z,100939.66
2023-04-27T13:23:33.561Z,100931.91
2023-04-27T13:26:02.816Z,100936.09
2023-04-27T13:28:30.728Z,100938.81
2023-04-27T13:31:00.468Z,100939.28
2023-04-27T13:33:28.549Z,100940.91
2023-04-27T13:35:56.461Z,100945.16
2023-04-27T13:38:24.332Z,100939.44
2023-04-27T13:40:52.260Z,100945.63
2023-04-27T13:43:20.275Z,100947.88
2023-04-27T13:45:49.593Z,100948.22
2023-04-27T13:48:19.409Z,100946.63
2023-04-27T13:50:48.573Z,100946.31
2023-04-27T13:53:17.098Z,100946.00
2023-04-27T13:55:45.107Z,100944.13
2023-04-27T13:58:13.382Z,100943.38
2023-04-27T14:00:41.570Z,100952.47
2023-04-27T14:03:09.644Z,100940.47
2023-04-27T14:05:38.988Z,100937.19
2023-04-27T14:08:07.084Z,100953.06
2023-04-27T14:10:36.932Z,100962.59
2023-04-27T14:13:04.881Z,100955.47
2023-04-27T14:15:36.879Z,100956.78
2023-04-27T14:18:06.397Z,100954.16
2023-04-27T14:20:34.699Z,100959.94
2023-04-27T14:23:04.753Z,100952.78
2023-04-27T14:25:34.607Z,100954.22
2023-04-27T14:28:03.937Z,100963.16
2023-04-27T14:30:32.695Z,100958.31
2023-04-27T14:33:00.730Z,100963.91
2023-04-27T14:35:29.259Z,100967.25
2023-04-27T14:38:02.167Z,100965.44
2023-04-27T14:40:32.180Z,100978.91
2023-04-27T14:43:00.556Z,100971.78
2023-04-27T14:45:36.704Z,100979.09
2023-04-27T14:48:08.611Z,100974.84
2023-04-27T14:50:36.722Z,100972.97
2023-04-27T14:53:04.574Z,100975.69
2023-04-27T14:55:33.912Z,100968.91
2023-04-27T14:58:01.886Z,100967.09
2023-04-27T15:00:29.841Z,100971.28
2023-04-27T15:02:57.771Z,100977.31
2023-04-27T15:05:26.480Z,100982.44
2023-04-27T15:07:54.422Z,100980.28
2023-04-27T15:10:22.364Z,100980.28
2023-04-27T15:12:51.661Z,100978.44
2023-04-27T15:15:19.796Z,100977.94
2023-04-27T15:17:47.782Z,100980.50
2023-04-27T15:20:15.814Z,100980.69
2023-04-27T15:22:43.738Z,100987.75
2023-04-27T15:25:11.886Z,100987.38
2023-04-27T15:27:39.832Z,100984.22
2023-04-27T15:30:10.165Z,100987.63
2023-04-27T15:32:38.075Z,100980.78
2023-04-27T15:35:06.891Z,100986.28
2023-04-27T15:37:37.504Z,100991.88
2023-04-27T15:40:07.482Z,100991.63
2023-04-27T15:42:35.895Z,100998.19
2023-04-27T15:45:04.012Z,100999.00
2023-04-27T15:47:34.385Z,101000.75
2023-04-27T15:50:02.065Z,100999.91
2023-04-27T15:52:29.870Z,101000.13
2023-04-27T15:54:57.824Z,100989.31
2023-04-27T15:57:25.796Z,100996.28
2023-04-27T15:59:53.705Z,100995.72
2023-04-27T16:02:21.808Z,101001.13
2023-04-27T16:04:51.240Z,100995.91
2023-04-27T16:07:19.258Z,101003.72
2023-04-27T16:09:47.377Z,101006.25
2023-04-27T16:12:16.535Z,101005.44
2023-04-27T16:14:44.463Z,101015.19
2023-04-27T16:17:12.487Z,101002.59
2023-04-27T16:19:40.305Z,101011.66
2023-04-27T16:22:09.561Z,101004.00
2023-04-27T16:24:40.654Z,101011.25
2023-04-27T16:27:08.689Z,101013.13
2023-04-27T16:29:36.633Z,101018.34
2023-04-27T16:32:04.824Z,101016.78
2023-04-27T16:34:32.905Z,101009.06
2023-04-27T16:37:00.757Z,101018.00
2023-04-27T16:39:30.751Z,101018.00
2023-04-27T16:41:58.640Z,101016.25
2023-04-27T16:44:26.896Z,101020.50
2023-04-27T16:46:54.795Z,101023.47
2023-04-27T16:49:22.628Z,101020.88
2023-04-27T16:51:50.906Z,101018.44
2023-04-27T16:54:19.590Z,101022.34
2023-04-27T16:56:50.150Z,101019.91
2023-04-27T16:59:18.089Z,101024.63
2023-04-27T17:01:46.064Z,101037.66
2023-04-27T17:04:14.207Z,101033.47
2023-04-27T17:06:42.145Z,101028.34
2023-04-27T17:09:10.347Z,101036.25
2023-04-27T17:11:38.286Z,101039.88
2023-04-27T17:14:07.581Z,101035.72
2023-04-27T17:16:35.420Z,101046.50
2023-04-27T17:19:03.889Z,101036.16
2023-04-27T17:21:32.453Z,101043.06
2023-04-27T17:24:00.590Z,101047.09
2023-04-27T17:26:28.585Z,101050.22
2023-04-27T17:28:59.993Z,101044.41
2023-04-27T17:31:29.408Z,101053.97
2023-04-27T17:33:57.257Z,101050.63
2023-04-27T17:36:26.448Z,101053.97
2023-04-27T17:38:54.875Z,101054.75
2023-04-27T17:41:22.723Z,101061.78
2023-04-27T17:43:50.989Z,101057.53
2023-04-27T17:46:18.970Z,101064.81
2023-04-27T17:48:48.385Z,101064.34
2023-04-27T17:51:16.355Z,101064.78
2023-04-27T17:53:45.212Z,101074.75
2023-04-27T17:56:13.109Z,101070.72
2023-04-27T17:58:41.063Z,101078.28
2023-04-27T18:01:11.468Z,101082.31
2023-04-27T18:03:39.553Z,101075.66
2023-04-27T18:06:09.253Z,101083.97
2023-04-27T18:08:37.217Z,101085.28
2023-04-27T18:11:06.690Z,101088.22
2023-04-27T18:13:34.594Z,101092.97
2023-04-27T18:16:02.548Z,101097.88
2023-04-27T18:18:30.675Z,101091.91
2023-04-27T18:20:58.771Z,101098.56
2023-04-27T18:23:28.022Z,101104.19
2023-04-27T18:25:59.482Z,101096.91
2023-04-27T18:28:27.463Z,101107.16
2023-04-27T18:30:55.445Z,101118.63
2023-04-27T18:33:23.348Z,101112.13
2023-04-27T18:35:52.041Z,101108.88
2023-04-27T18:38:20.063Z,101114.59
2023-04-27T18:40:49.311Z,101114.84
2023-04-27T18:43:17.248Z,101118.91
2023-04-27T18:45:45.237Z,101120.72
2023-04-27T18:48:13.201Z,101116.53
2023-04-27T18:50:41.092Z,101115.97
2023-04-27T18:53:09.109Z,101115.97
2023-04-27T18:55:36.935Z,101117.84
2023-04-27T18:58:06.304Z,101122.63
2023-04-27T19:00:34.263Z,101120.16
2023-04-27T19:03:02.242Z,101120.38
2023-04-27T19:05:30.487Z,101121.50
2023-04-27T19:07:58.520Z,101119.81
2023-04-27T19:10:26.500Z,101126.97
2023-04-27T19:12:56.023Z,101123.59
2023-04-27T19:15:25.670Z,101120.28
2023-04-27T19:18:03.056Z,101120.22
2023-04-27T19:20:38.566Z,101132.66
2023-04-27T19:23:08.004Z,101123.09
2023-04-27T19:25:36.530Z,101134.41
2023-04-27T19:28:05.758Z,101126.75
2023-04-27T19:30:35.425Z,101128.66
2023-04-27T19:33:04.271Z,101127.03
2023-04-27T19:35:32.287Z,101129.00
2023-04-27T19:38:00.199Z,101133.56
2023-04-27T19:40:28.207Z,101133.84
2023-04-27T19:42:56.226Z,101130.59
2023-04-27T19:45:24.252Z,101130.13
2023-04-27T19:47:54.170Z,101134.72
2023-04-27T19:50:22.615Z,101128.81
2023-04-27T19:52:50.713Z,101128.00
2023-04-27T19:55:18.652Z,101129.75
2023-04-27T19:57:46.622Z,101131.78
2023-04-27T20:00:15.070Z,101132.88
2023-04-27T20:02:43.630Z,101134.63
2023-04-27T20:05:13.664Z,101134.06
2023-04-27T20:07:42.365Z,101136.00
2023-04-27T20:10:10.417Z,101130.25
2023-04-27T20:12:54.562Z,101132.97
2023-04-27T20:15:24.518Z,101130.63
2023-04-27T20:17:52.521Z,101129.78
2023-04-27T20:20:22.002Z,101130.75
2023-04-27T20:22:49.917Z,101136.78
2023-04-27T20:25:19.865Z,101138.47
2023-04-27T20:27:47.954Z,101142.75
2023-04-27T20:30:16.368Z,101132.50
2023-04-27T20:32:46.520Z,101139.56
2023-04-27T20:35:14.330Z,101138.19
2023-04-27T20:37:44.850Z,101148.63
2023-04-27T20:40:17.533Z,101135.75
2023-04-27T20:42:45.771Z,101137.69
2023-04-27T20:45:13.886Z,101134.56
2023-04-27T20:47:42.278Z,101138.19
2023-04-27T20:50:10.824Z,101140.06
2023-04-27T20:52:38.901Z,101141.16
2023-04-27T20:55:08.539Z,101141.09
2023-04-27T20:57:36.540Z,101145.56
2023-04-27T21:00:05.063Z,101147.22
2023-04-27T21:02:33.477Z,101142.06
2023-04-27T21:05:01.762Z,101153.22
2023-04-27T21:07:29.723Z,101151.41
2023-04-27T21:09:57.688Z,101153.03
2023-04-27T21:12:26.945Z,101159.94
2023-04-27T21:14:54.837Z,101160.75
2023-04-27T21:17:22.646Z,101149.44
2023-04-27T21:19:50.485Z,101157.09
2023-04-27T21:22:18.457Z,101158.81
2023-04-27T21:24:47.506Z,101162.28
2023-04-27T21:27:15.493Z,101158.03
2023-04-27T21:29:45.263Z,101156.97
2023-04-27T21:32:13.206Z,101152.59
2023-04-27T21:34:41.086Z,101156.16
2023-04-27T21:37:08.985Z,101160.50
2023-04-27T21:39:36.896Z,101158.88
2023-04-27T21:42:05.110Z,101150.19
2023-04-27T21:44:33.016Z,101153.03
2023-04-27T21:47:02.368Z,101156.47
2023-04-27T21:49:30.371Z,101153.88
2023-04-27T21:51:58.189Z,101155.63
2023-04-27T21:54:26.182Z,101150.56
2023-04-27T21:56:54.086Z,101159.25
2023-04-27T21:59:22.405Z,101161.78
2023-04-27T22:01:50.900Z,101161.16
2023-04-27T22:04:20.518Z,101158.44
2023-04-27T22:06:49.102Z,101166.28
2023-04-27T22:09:17.134Z,101162.03
2023-04-27T22:11:45.028Z,101163.69
2023-04-27T22:14:13.122Z,101167.25
2023-04-27T22:16:41.222Z,101171.66
2023-04-27T22:19:09.251Z,101169.25
2023-04-27T22:21:38.561Z,101178.84
2023-04-27T22:24:06.856Z,101181.56
2023-04-27T22:26:35.123Z,101178.19
2023-04-27T22:29:02.945Z,101179.97
2023-04-27T22:31:31.933Z,101178.28
2023-04-27T22:33:59.920Z,101180.81
2023-04-27T22:36:28.152Z,101180.25
2023-04-27T22:38:57.480Z,101179.31
2023-04-27T22:41:25.316Z,101182.84
2023-04-27T22:43:53.811Z,101186.34
2023-04-27T22:46:23.205Z,101186.41
2023-04-27T22:48:53.016Z,101187.44
2023-04-27T22:51:21.810Z,101185.63
2023-04-27T22:53:50.150Z,101190.91
2023-04-27T22:56:19.617Z,101185.75
2023-04-27T22:58:47.735Z,101183.31
2023-04-27T23:01:15.705Z,101186.94
2023-04-27T23:03:43.784Z,101183.72
2023-04-27T23:06:14.355Z,101192.41
2023-04-27T23:08:44.729Z,101188.16
2023-04-27T23:11:15.487Z,101184.69
2023-04-27T23:13:48.179Z,101184.81
2023-04-27T23:16:16.060Z,101185.66
2023-04-27T23:18:43.980Z,101182.28
2023-04-27T23:21:12.373Z,101184.06
2023-04-27T23:23:40.587Z,101179.88
2023-04-27T23:26:14.321Z,101181.56
2023-04-27T23:28:42.746Z,101183.19
2023-04-27T23:31:12.081Z,101182.41
2023-04-27T23:33:40.019Z,101181.56
2023-04-27T23:36:08.369Z,101185.00
2023-04-27T23:38:36.581Z,101189.41
2023-04-27T23:43:17.269Z,101185.44
2023-04-27T23:45:49.914Z,101195.47
2023-04-27T23:48:18.164Z,101195.41
2023-04-27T23:50:46.257Z,101199.50
2023-04-27T23:53:14.398Z,101195.97
2023-04-27T23:55:42.325Z,101187.47
2023-04-27T23:58:10.241Z,101203.06
